sensor_id;sensor_type;location;lat;lon;timestamp;temperature;humidity
15554;DHT22;7878;44.632;10.942;2023-03-03T00:01:34;9.20;99.90
15554;DHT22;7878;44.632;10.942;2023-03-03T00:04:00;9.20;99.90
15554;DHT22;7878;44.632;10.942;2023-03-03T00:06:26;9.20;99.90
15554;DHT22;7878;44.632;10.942;2023-03-03T00:08:52;9.30;99.90
15554;DHT22;7878;44.632;10.942;2023-03-03T00:11:18;9.20;99.90
15554;DHT22;7878;44.632;10.942;2023-03-03T00:13:45;9.20;99.90
15554;DHT22;7878;44.632;10.942;2023-03-03T00:16:28;9.20;99.90
15554;DHT22;7878;44.632;10.942;2023-03-03T00:18:55;9.20;99.90
15554;DHT22;7878;44.632;10.942;2023-03-03T00:21:34;9.20;99.90
15554;DHT22;7878;44.632;10.942;2023-03-03T00:26:40;9.20;99.90
15554;DHT22;7878;44.632;10.942;2023-03-03T00:34:36;9.10;99.90
15554;DHT22;7878;44.632;10.942;2023-03-03T00:37:02;9.10;99.90
15554;DHT22;7878;44.632;10.942;2023-03-03T00:39:38;9.10;99.90
15554;DHT22;7878;44.632;10.942;2023-03-03T00:42:13;9.10;99.90
15554;DHT22;7878;44.632;10.942;2023-03-03T00:44:55;9.10;99.90
15554;DHT22;7878;44.632;10.942;2023-03-03T00:47:25;9.00;99.90
15554;DHT22;7878;44.632;10.942;2023-03-03T00:49:53;9.00;99.90
15554;DHT22;7878;44.632;10.942;2023-03-03T00:52:19;9.00;99.90
15554;DHT22;7878;44.632;10.942;2023-03-03T00:54:46;9.00;99.90
15554;DHT22;7878;44.632;10.942;2023-03-03T00:57:12;9.00;99.90
15554;DHT22;7878;44.632;10.942;2023-03-03T00:59:38;9.00;99.90
15554;DHT22;7878;44.632;10.942;2023-03-03T01:02:04;9.00;99.90
15554;DHT22;7878;44.632;10.942;2023-03-03T01:04:30;9.00;99.90
15554;DHT22;7878;44.632;10.942;2023-03-03T01:06:56;9.00;99.90
15554;DHT22;7878;44.632;10.942;2023-03-03T01:09:22;9.10;99.90
15554;DHT22;7878;44.632;10.942;2023-03-03T01:11:48;9.10;99.90
15554;DHT22;7878;44.632;10.942;2023-03-03T01:14:14;9.10;99.90
15554;DHT22;7878;44.632;10.942;2023-03-03T01:16:40;9.10;99.90
15554;DHT22;7878;44.632;10.942;2023-03-03T01:19:06;9.10;99.90
15554;DHT22;7878;44.632;10.942;2023-03-03T01:21:32;9.10;99.90
15554;DHT22;7878;44.632;10.942;2023-03-03T01:23:57;9.10;99.90
15554;DHT22;7878;44.632;10.942;2023-03-03T01:26:23;9.10;99.90
15554;DHT22;7878;44.632;10.942;2023-03-03T01:28:49;9.10;99.90
15554;DHT22;7878;44.632;10.942;2023-03-03T01:31:14;9.00;99.90
15554;DHT22;7878;44.632;10.942;2023-03-03T01:33:40;8.90;99.90
15554;DHT22;7878;44.632;10.942;2023-03-03T01:36:06;8.90;99.90
15554;DHT22;7878;44.632;10.942;2023-03-03T01:38:35;8.90;99.90
15554;DHT22;7878;44.632;10.942;2023-03-03T01:41:01;8.90;99.90
15554;DHT22;7878;44.632;10.942;2023-03-03T01:43:29;8.80;99.90
15554;DHT22;7878;44.632;10.942;2023-03-03T01:48:27;8.80;99.90
15554;DHT22;7878;44.632;10.942;2023-03-03T01:50:58;8.80;99.90
15554;DHT22;7878;44.632;10.942;2023-03-03T01:53:45;8.80;99.90
15554;DHT22;7878;44.632;10.942;2023-03-03T01:56:12;8.70;99.90
15554;DHT22;7878;44.632;10.942;2023-03-03T02:01:30;8.70;99.90
15554;DHT22;7878;44.632;10.942;2023-03-03T02:03:57;8.80;99.90
15554;DHT22;7878;44.632;10.942;2023-03-03T02:06:27;8.80;99.90
15554;DHT22;7878;44.632;10.942;2023-03-03T02:09:01;8.80;99.90
15554;DHT22;7878;44.632;10.942;2023-03-03T02:11:30;8.80;99.90
15554;DHT22;7878;44.632;10.942;2023-03-03T02:13:59;8.80;99.90
15554;DHT22;7878;44.632;10.942;2023-03-03T02:16:24;8.80;99.90
15554;DHT22;7878;44.632;10.942;2023-03-03T02:18:50;8.70;99.90
15554;DHT22;7878;44.632;10.942;2023-03-03T02:21:22;8.70;99.90
15554;DHT22;7878;44.632;10.942;2023-03-03T02:24:17;8.70;99.90
15554;DHT22;7878;44.632;10.942;2023-03-03T02:26:46;8.60;99.90
15554;DHT22;7878;44.632;10.942;2023-03-03T02:29:12;8.60;99.90
15554;DHT22;7878;44.632;10.942;2023-03-03T02:31:38;8.60;99.90
15554;DHT22;7878;44.632;10.942;2023-03-03T02:34:05;8.60;99.90
15554;DHT22;7878;44.632;10.942;2023-03-03T02:36:33;8.60;99.90
15554;DHT22;7878;44.632;10.942;2023-03-03T02:39:20;8.60;99.90
15554;DHT22;7878;44.632;10.942;2023-03-03T02:44:34;8.60;99.90
15554;DHT22;7878;44.632;10.942;2023-03-03T02:47:00;8.50;99.90
15554;DHT22;7878;44.632;10.942;2023-03-03T02:49:28;8.50;99.90
15554;DHT22;7878;44.632;10.942;2023-03-03T02:51:54;8.50;99.90
15554;DHT22;7878;44.632;10.942;2023-03-03T02:54:22;8.50;99.90
15554;DHT22;7878;44.632;10.942;2023-03-03T02:56:48;8.40;99.90
15554;DHT22;7878;44.632;10.942;2023-03-03T02:59:15;8.50;99.90
15554;DHT22;7878;44.632;10.942;2023-03-03T03:01:41;8.40;99.90
15554;DHT22;7878;44.632;10.942;2023-03-03T03:04:11;8.40;99.90
15554;DHT22;7878;44.632;10.942;2023-03-03T03:06:37;8.40;99.90
15554;DHT22;7878;44.632;10.942;2023-03-03T03:09:04;8.40;99.90
15554;DHT22;7878;44.632;10.942;2023-03-03T03:11:30;8.50;99.90
15554;DHT22;7878;44.632;10.942;2023-03-03T03:13:56;8.40;99.90
15554;DHT22;7878;44.632;10.942;2023-03-03T03:16:22;8.40;99.90
15554;DHT22;7878;44.632;10.942;2023-03-03T03:18:48;8.40;99.90
15554;DHT22;7878;44.632;10.942;2023-03-03T03:21:15;8.40;99.90
15554;DHT22;7878;44.632;10.942;2023-03-03T03:23:41;8.40;99.90
15554;DHT22;7878;44.632;10.942;2023-03-03T03:26:07;8.40;99.90
15554;DHT22;7878;44.632;10.942;2023-03-03T03:28:33;8.40;99.90
15554;DHT22;7878;44.632;10.942;2023-03-03T03:31:00;8.40;99.90
15554;DHT22;7878;44.632;10.942;2023-03-03T03:33:25;8.40;99.90
15554;DHT22;7878;44.632;10.942;2023-03-03T03:35:53;8.50;99.90
15554;DHT22;7878;44.632;10.942;2023-03-03T03:38:21;8.50;99.90
15554;DHT22;7878;44.632;10.942;2023-03-03T03:40:47;8.50;99.90
15554;DHT22;7878;44.632;10.942;2023-03-03T03:43:13;8.50;99.90
15554;DHT22;7878;44.632;10.942;2023-03-03T03:45:41;8.60;99.90
15554;DHT22;7878;44.632;10.942;2023-03-03T03:48:07;8.60;99.90
15554;DHT22;7878;44.632;10.942;2023-03-03T03:50:32;8.60;99.90
15554;DHT22;7878;44.632;10.942;2023-03-03T03:52:58;8.70;99.90
15554;DHT22;7878;44.632;10.942;2023-03-03T03:55:24;8.70;99.90
15554;DHT22;7878;44.632;10.942;2023-03-03T03:57:49;8.70;99.90
15554;DHT22;7878;44.632;10.942;2023-03-03T04:00:16;8.60;99.90
15554;DHT22;7878;44.632;10.942;2023-03-03T04:02:41;8.60;99.90
15554;DHT22;7878;44.632;10.942;2023-03-03T04:05:07;8.70;99.90
15554;DHT22;7878;44.632;10.942;2023-03-03T04:07:33;8.70;99.90
15554;DHT22;7878;44.632;10.942;2023-03-03T04:09:59;8.80;99.90
15554;DHT22;7878;44.632;10.942;2023-03-03T04:12:25;8.80;99.90
15554;DHT22;7878;44.632;10.942;2023-03-03T04:14:51;8.80;99.90
15554;DHT22;7878;44.632;10.942;2023-03-03T04:17:18;8.90;99.90
15554;DHT22;7878;44.632;10.942;2023-03-03T04:19:44;8.80;99.90
15554;DHT22;7878;44.632;10.942;2023-03-03T04:22:10;8.80;99.90
15554;DHT22;7878;44.632;10.942;2023-03-03T04:24:37;8.70;99.90
15554;DHT22;7878;44.632;10.942;2023-03-03T04:27:02;8.70;99.90
15554;DHT22;7878;44.632;10.942;2023-03-03T04:29:28;8.70;99.90
15554;DHT22;7878;44.632;10.942;2023-03-03T04:31:54;8.70;99.90
15554;DHT22;7878;44.632;10.942;2023-03-03T04:34:20;8.70;99.90
15554;DHT22;7878;44.632;10.942;2023-03-03T04:36:45;8.70;99.90
15554;DHT22;7878;44.632;10.942;2023-03-03T04:39:11;8.70;99.90
15554;DHT22;7878;44.632;10.942;2023-03-03T04:41:37;8.70;99.90
15554;DHT22;7878;44.632;10.942;2023-03-03T04:44:03;8.60;99.90
15554;DHT22;7878;44.632;10.942;2023-03-03T04:46:29;8.60;99.90
15554;DHT22;7878;44.632;10.942;2023-03-03T04:48:54;8.60;99.90
15554;DHT22;7878;44.632;10.942;2023-03-03T04:51:21;8.60;99.90
15554;DHT22;7878;44.632;10.942;2023-03-03T04:53:47;8.60;99.90
15554;DHT22;7878;44.632;10.942;2023-03-03T04:56:13;8.60;99.90
15554;DHT22;7878;44.632;10.942;2023-03-03T04:58:39;8.50;99.90
15554;DHT22;7878;44.632;10.942;2023-03-03T05:01:05;8.50;99.90
15554;DHT22;7878;44.632;10.942;2023-03-03T05:03:31;8.50;99.90
15554;DHT22;7878;44.632;10.942;2023-03-03T05:05:56;8.50;99.90
15554;DHT22;7878;44.632;10.942;2023-03-03T05:08:22;8.50;99.90
15554;DHT22;7878;44.632;10.942;2023-03-03T05:10:52;8.40;99.90
15554;DHT22;7878;44.632;10.942;2023-03-03T05:13:18;8.40;99.90
15554;DHT22;7878;44.632;10.942;2023-03-03T05:15:49;8.40;99.90
15554;DHT22;7878;44.632;10.942;2023-03-03T05:18:15;8.40;99.90
15554;DHT22;7878;44.632;10.942;2023-03-03T05:20:40;8.40;99.90
15554;DHT22;7878;44.632;10.942;2023-03-03T05:23:07;8.30;99.90
15554;DHT22;7878;44.632;10.942;2023-03-03T05:25:32;8.30;99.90
15554;DHT22;7878;44.632;10.942;2023-03-03T05:27:58;8.30;99.90
15554;DHT22;7878;44.632;10.942;2023-03-03T05:30:24;8.30;99.90
15554;DHT22;7878;44.632;10.942;2023-03-03T05:32:49;8.20;99.90
15554;DHT22;7878;44.632;10.942;2023-03-03T05:35:15;8.20;99.90
15554;DHT22;7878;44.632;10.942;2023-03-03T05:37:41;8.10;99.90
15554;DHT22;7878;44.632;10.942;2023-03-03T05:40:14;8.10;99.90
15554;DHT22;7878;44.632;10.942;2023-03-03T05:42:40;8.10;99.90
15554;DHT22;7878;44.632;10.942;2023-03-03T05:45:07;8.10;99.90
15554;DHT22;7878;44.632;10.942;2023-03-03T05:47:32;8.10;99.90
15554;DHT22;7878;44.632;10.942;2023-03-03T05:49:58;8.10;99.90
15554;DHT22;7878;44.632;10.942;2023-03-03T05:52:25;8.10;99.90
15554;DHT22;7878;44.632;10.942;2023-03-03T05:54:51;8.20;99.90
15554;DHT22;7878;44.632;10.942;2023-03-03T05:57:16;8.10;99.90
15554;DHT22;7878;44.632;10.942;2023-03-03T05:59:42;8.10;99.90
15554;DHT22;7878;44.632;10.942;2023-03-03T06:02:08;8.10;99.90
15554;DHT22;7878;44.632;10.942;2023-03-03T06:04:33;8.10;99.90
15554;DHT22;7878;44.632;10.942;2023-03-03T06:06:59;8.10;99.90
15554;DHT22;7878;44.632;10.942;2023-03-03T06:09:24;8.10;99.90
15554;DHT22;7878;44.632;10.942;2023-03-03T06:11:51;8.10;99.90
15554;DHT22;7878;44.632;10.942;2023-03-03T06:14:20;8.10;99.90
15554;DHT22;7878;44.632;10.942;2023-03-03T06:16:46;8.10;99.90
15554;DHT22;7878;44.632;10.942;2023-03-03T06:19:12;8.20;99.90
15554;DHT22;7878;44.632;10.942;2023-03-03T06:21:39;8.20;99.90
15554;DHT22;7878;44.632;10.942;2023-03-03T06:24:05;8.20;99.90
15554;DHT22;7878;44.632;10.942;2023-03-03T06:26:32;8.20;99.90
15554;DHT22;7878;44.632;10.942;2023-03-03T06:28:58;8.10;99.90
15554;DHT22;7878;44.632;10.942;2023-03-03T06:31:24;8.20;99.90
15554;DHT22;7878;44.632;10.942;2023-03-03T06:33:50;8.20;99.90
15554;DHT22;7878;44.632;10.942;2023-03-03T06:36:16;8.20;99.90
15554;DHT22;7878;44.632;10.942;2023-03-03T06:38:42;8.20;99.90
15554;DHT22;7878;44.632;10.942;2023-03-03T06:41:08;8.20;99.90
15554;DHT22;7878;44.632;10.942;2023-03-03T06:43:35;8.30;99.90
15554;DHT22;7878;44.632;10.942;2023-03-03T06:46:01;8.30;99.90
15554;DHT22;7878;44.632;10.942;2023-03-03T06:48:28;8.30;99.90
15554;DHT22;7878;44.632;10.942;2023-03-03T06:50:54;8.40;99.90
15554;DHT22;7878;44.632;10.942;2023-03-03T06:53:20;8.40;99.90
15554;DHT22;7878;44.632;10.942;2023-03-03T06:55:46;8.50;99.90
15554;DHT22;7878;44.632;10.942;2023-03-03T06:58:20;8.50;99.90
15554;DHT22;7878;44.632;10.942;2023-03-03T07:00:59;8.60;99.90
15554;DHT22;7878;44.632;10.942;2023-03-03T07:03:27;8.60;99.90
15554;DHT22;7878;44.632;10.942;2023-03-03T07:05:57;8.60;99.90
15554;DHT22;7878;44.632;10.942;2023-03-03T07:08:23;8.60;99.90
15554;DHT22;7878;44.632;10.942;2023-03-03T07:10:51;8.70;99.90
15554;DHT22;7878;44.632;10.942;2023-03-03T07:13:24;8.80;99.90
15554;DHT22;7878;44.632;10.942;2023-03-03T07:15:52;8.90;99.90
15554;DHT22;7878;44.632;10.942;2023-03-03T07:21:12;9.30;99.90
15554;DHT22;7878;44.632;10.942;2023-03-03T07:23:39;9.40;99.90
15554;DHT22;7878;44.632;10.942;2023-03-03T07:26:11;9.40;99.90
15554;DHT22;7878;44.632;10.942;2023-03-03T07:28:40;9.40;99.90
15554;DHT22;7878;44.632;10.942;2023-03-03T07:34:01;9.70;99.90
15554;DHT22;7878;44.632;10.942;2023-03-03T07:36:29;9.80;99.90
15554;DHT22;7878;44.632;10.942;2023-03-03T07:39:20;9.90;99.90
15554;DHT22;7878;44.632;10.942;2023-03-03T07:41:49;10.10;99.90
15554;DHT22;7878;44.632;10.942;2023-03-03T07:44:21;10.10;99.90
15554;DHT22;7878;44.632;10.942;2023-03-03T07:46:49;10.30;99.90
15554;DHT22;7878;44.632;10.942;2023-03-03T07:49:23;10.30;99.90
15554;DHT22;7878;44.632;10.942;2023-03-03T07:51:53;10.50;99.90
15554;DHT22;7878;44.632;10.942;2023-03-03T07:57:01;10.80;99.90
15554;DHT22;7878;44.632;10.942;2023-03-03T07:59:34;11.00;99.90
15554;DHT22;7878;44.632;10.942;2023-03-03T08:02:01;11.30;99.90
15554;DHT22;7878;44.632;10.942;2023-03-03T08:04:43;11.50;99.90
15554;DHT22;7878;44.632;10.942;2023-03-03T08:07:16;11.60;99.90
15554;DHT22;7878;44.632;10.942;2023-03-03T08:10:02;11.70;99.90
15554;DHT22;7878;44.632;10.942;2023-03-03T08:12:39;11.70;99.80
15554;DHT22;7878;44.632;10.942;2023-03-03T08:17:41;11.90;99.90
15554;DHT22;7878;44.632;10.942;2023-03-03T08:20:35;12.00;99.90
15554;DHT22;7878;44.632;10.942;2023-03-03T08:23:03;12.10;99.20
15554;DHT22;7878;44.632;10.942;2023-03-03T08:25:29;12.10;99.40
15554;DHT22;7878;44.632;10.942;2023-03-03T08:27:54;12.30;99.50
15554;DHT22;7878;44.632;10.942;2023-03-03T08:30:20;12.50;99.10
15554;DHT22;7878;44.632;10.942;2023-03-03T08:32:45;12.60;98.80
15554;DHT22;7878;44.632;10.942;2023-03-03T08:35:11;12.70;99.00
15554;DHT22;7878;44.632;10.942;2023-03-03T08:37:37;12.70;98.70
15554;DHT22;7878;44.632;10.942;2023-03-03T08:40:03;12.80;98.20
15554;DHT22;7878;44.632;10.942;2023-03-03T08:42:28;12.90;98.40
15554;DHT22;7878;44.632;10.942;2023-03-03T08:44:54;13.20;98.50
15554;DHT22;7878;44.632;10.942;2023-03-03T08:47:20;13.60;98.40
15554;DHT22;7878;44.632;10.942;2023-03-03T08:49:46;13.90;97.50
15554;DHT22;7878;44.632;10.942;2023-03-03T08:52:11;14.30;97.70
15554;DHT22;7878;44.632;10.942;2023-03-03T08:54:37;14.40;97.20
15554;DHT22;7878;44.632;10.942;2023-03-03T08:57:03;14.40;97.10
15554;DHT22;7878;44.632;10.942;2023-03-03T08:59:28;14.40;97.00
15554;DHT22;7878;44.632;10.942;2023-03-03T09:01:54;14.40;97.20
15554;DHT22;7878;44.632;10.942;2023-03-03T09:04:20;14.30;96.90
15554;DHT22;7878;44.632;10.942;2023-03-03T09:06:45;14.20;96.60
15554;DHT22;7878;44.632;10.942;2023-03-03T09:09:11;14.20;96.80
15554;DHT22;7878;44.632;10.942;2023-03-03T09:11:36;14.20;96.90
15554;DHT22;7878;44.632;10.942;2023-03-03T09:14:15;14.20;97.10
15554;DHT22;7878;44.632;10.942;2023-03-03T09:16:50;14.30;97.20
15554;DHT22;7878;44.632;10.942;2023-03-03T09:19:26;14.50;96.50
15554;DHT22;7878;44.632;10.942;2023-03-03T09:21:55;14.50;96.30
15554;DHT22;7878;44.632;10.942;2023-03-03T09:24:27;14.60;96.30
15554;DHT22;7878;44.632;10.942;2023-03-03T09:26:54;14.60;95.90
15554;DHT22;7878;44.632;10.942;2023-03-03T09:29:32;14.70;96.10
15554;DHT22;7878;44.632;10.942;2023-03-03T09:34:42;14.90;95.20
15554;DHT22;7878;44.632;10.942;2023-03-03T09:37:35;15.00;95.40
15554;DHT22;7878;44.632;10.942;2023-03-03T09:43:10;15.40;94.70
15554;DHT22;7878;44.632;10.942;2023-03-03T09:48:45;15.60;93.20
15554;DHT22;7878;44.632;10.942;2023-03-03T10:08:10;17.70;93.00
15554;DHT22;7878;44.632;10.942;2023-03-03T10:11:03;18.00;90.50
15554;DHT22;7878;44.632;10.942;2023-03-03T10:21:51;18.30;91.70
15554;DHT22;7878;44.632;10.942;2023-03-03T10:24:28;18.80;91.40
15554;DHT22;7878;44.632;10.942;2023-03-03T10:30:02;19.00;88.00
15554;DHT22;7878;44.632;10.942;2023-03-03T10:38:20;18.50;88.70
15554;DHT22;7878;44.632;10.942;2023-03-03T11:05:33;19.60;81.80
15554;DHT22;7878;44.632;10.942;2023-03-03T11:10:59;20.30;84.30
15554;DHT22;7878;44.632;10.942;2023-03-03T11:13:49;20.40;79.50
15554;DHT22;7878;44.632;10.942;2023-03-03T11:16:31;20.10;78.30
15554;DHT22;7878;44.632;10.942;2023-03-03T11:25:00;20.20;74.40
15554;DHT22;7878;44.632;10.942;2023-03-03T11:27:59;20.50;79.70
15554;DHT22;7878;44.632;10.942;2023-03-03T11:37:15;22.30;70.50
15554;DHT22;7878;44.632;10.942;2023-03-03T11:39:09;22.90;77.00
15554;DHT22;7878;44.632;10.942;2023-03-03T11:41:49;22.90;75.60
15554;DHT22;7878;44.632;10.942;2023-03-03T11:44:23;22.70;76.30
15554;DHT22;7878;44.632;10.942;2023-03-03T11:54:45;23.70;73.70
15554;DHT22;7878;44.632;10.942;2023-03-03T12:05:25;24.40;66.70
15554;DHT22;7878;44.632;10.942;2023-03-03T12:10:44;27.70;66.30
15554;DHT22;7878;44.632;10.942;2023-03-03T12:13:19;27.80;64.90
15554;DHT22;7878;44.632;10.942;2023-03-03T12:16:10;28.40;64.30
15554;DHT22;7878;44.632;10.942;2023-03-03T12:31:48;30.80;57.90
15554;DHT22;7878;44.632;10.942;2023-03-03T12:44:53;26.50;54.30
15554;DHT22;7878;44.632;10.942;2023-03-03T12:47:27;24.80;57.60
15554;DHT22;7878;44.632;10.942;2023-03-03T12:50:13;23.60;60.80
15554;DHT22;7878;44.632;10.942;2023-03-03T13:06:36;20.10;63.90
15554;DHT22;7878;44.632;10.942;2023-03-03T13:11:58;19.50;62.30
15554;DHT22;7878;44.632;10.942;2023-03-03T13:14:30;19.30;65.50
15554;DHT22;7878;44.632;10.942;2023-03-03T13:17:29;19.00;65.20
15554;DHT22;7878;44.632;10.942;2023-03-03T13:19:58;18.70;62.50
15554;DHT22;7878;44.632;10.942;2023-03-03T13:22:46;18.50;66.80
15554;DHT22;7878;44.632;10.942;2023-03-03T13:25:38;18.40;65.50
15554;DHT22;7878;44.632;10.942;2023-03-03T13:31:21;18.00;61.70
15554;DHT22;7878;44.632;10.942;2023-03-03T13:33:55;17.70;65.90
15554;DHT22;7878;44.632;10.942;2023-03-03T13:39:37;17.70;67.50
15554;DHT22;7878;44.632;10.942;2023-03-03T13:42:26;17.40;64.60
15554;DHT22;7878;44.632;10.942;2023-03-03T13:44:55;17.20;67.10
15554;DHT22;7878;44.632;10.942;2023-03-03T13:47:42;17.00;69.20
15554;DHT22;7878;44.632;10.942;2023-03-03T13:55:28;16.60;69.20
15554;DHT22;7878;44.632;10.942;2023-03-03T13:58:15;16.60;70.30
15554;DHT22;7878;44.632;10.942;2023-03-03T14:01:11;16.60;68.70
15554;DHT22;7878;44.632;10.942;2023-03-03T14:04:28;16.70;69.40
15554;DHT22;7878;44.632;10.942;2023-03-03T14:06:51;16.70;69.20
15554;DHT22;7878;44.632;10.942;2023-03-03T14:09:49;16.80;71.20
15554;DHT22;7878;44.632;10.942;2023-03-03T14:15:10;16.80;70.70
15554;DHT22;7878;44.632;10.942;2023-03-03T14:17:58;16.80;69.70
15554;DHT22;7878;44.632;10.942;2023-03-03T14:20:30;16.80;69.70
15554;DHT22;7878;44.632;10.942;2023-03-03T14:23:00;16.90;71.10
15554;DHT22;7878;44.632;10.942;2023-03-03T14:25:26;16.90;70.10
15554;DHT22;7878;44.632;10.942;2023-03-03T14:28:13;16.90;70.50
15554;DHT22;7878;44.632;10.942;2023-03-03T14:30:42;17.00;71.20
15554;DHT22;7878;44.632;10.942;2023-03-03T14:38:14;16.90;69.10
15554;DHT22;7878;44.632;10.942;2023-03-03T14:40:42;16.80;69.30
15554;DHT22;7878;44.632;10.942;2023-03-03T14:45:47;16.60;68.90
15554;DHT22;7878;44.632;10.942;2023-03-03T14:53:36;16.60;70.80
15554;DHT22;7878;44.632;10.942;2023-03-03T14:56:24;16.60;70.20
15554;DHT22;7878;44.632;10.942;2023-03-03T15:01:39;16.50;68.50
15554;DHT22;7878;44.632;10.942;2023-03-03T15:06:45;16.60;71.40
15554;DHT22;7878;44.632;10.942;2023-03-03T15:09:37;16.60;71.80
15554;DHT22;7878;44.632;10.942;2023-03-03T15:12:25;16.50;68.90
15554;DHT22;7878;44.632;10.942;2023-03-03T15:17:35;16.10;70.50
15554;DHT22;7878;44.632;10.942;2023-03-03T15:22:48;15.70;72.40
15554;DHT22;7878;44.632;10.942;2023-03-03T15:25:21;15.60;70.30
15554;DHT22;7878;44.632;10.942;2023-03-03T15:28:05;15.50;72.20
15554;DHT22;7878;44.632;10.942;2023-03-03T15:30:42;15.40;72.80
15554;DHT22;7878;44.632;10.942;2023-03-03T15:36:10;15.30;69.70
15554;DHT22;7878;44.632;10.942;2023-03-03T15:39:06;15.30;71.60
15554;DHT22;7878;44.632;10.942;2023-03-03T15:44:37;15.40;72.70
15554;DHT22;7878;44.632;10.942;2023-03-03T15:55:51;15.30;72.10
15554;DHT22;7878;44.632;10.942;2023-03-03T16:01:33;15.20;73.00
15554;DHT22;7878;44.632;10.942;2023-03-03T16:06:53;15.10;74.10
15554;DHT22;7878;44.632;10.942;2023-03-03T16:12:37;14.90;71.80
15554;DHT22;7878;44.632;10.942;2023-03-03T16:18:06;14.80;73.40
15554;DHT22;7878;44.632;10.942;2023-03-03T16:20:51;14.80;73.20
15554;DHT22;7878;44.632;10.942;2023-03-03T16:26:11;14.70;74.00
15554;DHT22;7878;44.632;10.942;2023-03-03T16:32:06;14.60;75.10
15554;DHT22;7878;44.632;10.942;2023-03-03T16:44:50;14.50;78.20
15554;DHT22;7878;44.632;10.942;2023-03-03T16:47:28;14.40;78.60
15554;DHT22;7878;44.632;10.942;2023-03-03T16:53:48;14.40;78.90
15554;DHT22;7878;44.632;10.942;2023-03-03T16:56:24;14.30;79.90
15554;DHT22;7878;44.632;10.942;2023-03-03T17:07:41;14.00;81.10
15554;DHT22;7878;44.632;10.942;2023-03-03T17:10:28;14.00;81.40
15554;DHT22;7878;44.632;10.942;2023-03-03T17:13:16;13.90;81.70
15554;DHT22;7878;44.632;10.942;2023-03-03T17:16:01;13.90;82.20
15554;DHT22;7878;44.632;10.942;2023-03-03T17:21:00;13.80;82.80
15554;DHT22;7878;44.632;10.942;2023-03-03T17:34:21;13.70;84.50
15554;DHT22;7878;44.632;10.942;2023-03-03T17:42:44;13.50;85.90
15554;DHT22;7878;44.632;10.942;2023-03-03T17:45:13;13.50;85.70
15554;DHT22;7878;44.632;10.942;2023-03-03T17:56:19;13.40;86.50
15554;DHT22;7878;44.632;10.942;2023-03-03T18:04:30;13.40;87.20
15554;DHT22;7878;44.632;10.942;2023-03-03T18:23:37;13.20;88.30
15554;DHT22;7878;44.632;10.942;2023-03-03T18:26:34;13.20;88.30
15554;DHT22;7878;44.632;10.942;2023-03-03T18:34:37;13.20;89.20
15554;DHT22;7878;44.632;10.942;2023-03-03T18:37:38;13.10;89.20
15554;DHT22;7878;44.632;10.942;2023-03-03T18:42:37;13.20;89.60
15554;DHT22;7878;44.632;10.942;2023-03-03T18:48:10;13.20;89.70
15554;DHT22;7878;44.632;10.942;2023-03-03T18:50:40;13.20;89.60
15554;DHT22;7878;44.632;10.942;2023-03-03T19:00:46;13.20;88.90
15554;DHT22;7878;44.632;10.942;2023-03-03T19:05:51;13.30;89.30
15554;DHT22;7878;44.632;10.942;2023-03-03T19:08:53;13.20;88.90
15554;DHT22;7878;44.632;10.942;2023-03-03T19:11:55;13.30;89.30
15554;DHT22;7878;44.632;10.942;2023-03-03T19:20:17;13.20;89.60
15554;DHT22;7878;44.632;10.942;2023-03-03T19:22:48;13.20;90.00
15554;DHT22;7878;44.632;10.942;2023-03-03T19:25:26;13.20;90.10
15554;DHT22;7878;44.632;10.942;2023-03-03T19:38:36;13.10;89.50
15554;DHT22;7878;44.632;10.942;2023-03-03T19:44:05;13.20;90.10
15554;DHT22;7878;44.632;10.942;2023-03-03T19:46:47;13.20;90.00
15554;DHT22;7878;44.632;10.942;2023-03-03T19:55:43;13.10;89.10
15554;DHT22;7878;44.632;10.942;2023-03-03T19:58:19;13.10;89.50
15554;DHT22;7878;44.632;10.942;2023-03-03T20:00:56;13.10;89.20
15554;DHT22;7878;44.632;10.942;2023-03-03T20:06:38;13.10;89.20
15554;DHT22;7878;44.632;10.942;2023-03-03T20:16:53;13.00;89.20
15554;DHT22;7878;44.632;10.942;2023-03-03T20:49:56;12.30;90.40
15554;DHT22;7878;44.632;10.942;2023-03-03T20:52:52;12.30;90.40
15554;DHT22;7878;44.632;10.942;2023-03-03T20:55:38;12.20;90.40
15554;DHT22;7878;44.632;10.942;2023-03-03T21:01:15;12.10;90.80
15554;DHT22;7878;44.632;10.942;2023-03-03T21:03:44;12.00;90.60
15554;DHT22;7878;44.632;10.942;2023-03-03T21:06:15;12.00;90.70
15554;DHT22;7878;44.632;10.942;2023-03-03T21:11:08;11.90;90.80
15554;DHT22;7878;44.632;10.942;2023-03-03T21:13:47;11.90;90.80
15554;DHT22;7878;44.632;10.942;2023-03-03T21:19:05;11.90;90.90
15554;DHT22;7878;44.632;10.942;2023-03-03T21:24:01;11.90;91.20
15554;DHT22;7878;44.632;10.942;2023-03-03T21:26:59;11.90;91.20
15554;DHT22;7878;44.632;10.942;2023-03-03T21:29:34;11.80;91.50
15554;DHT22;7878;44.632;10.942;2023-03-03T21:32:06;11.80;91.30
15554;DHT22;7878;44.632;10.942;2023-03-03T21:34:37;11.80;91.30
15554;DHT22;7878;44.632;10.942;2023-03-03T21:37:09;11.80;91.40
15554;DHT22;7878;44.632;10.942;2023-03-03T21:39:41;11.80;91.20
15554;DHT22;7878;44.632;10.942;2023-03-03T21:42:12;11.80;91.60
15554;DHT22;7878;44.632;10.942;2023-03-03T21:44:43;11.80;91.70
15554;DHT22;7878;44.632;10.942;2023-03-03T21:47:16;11.80;91.70
15554;DHT22;7878;44.632;10.942;2023-03-03T21:49:43;11.70;91.60
15554;DHT22;7878;44.632;10.942;2023-03-03T21:52:10;11.70;91.50
15554;DHT22;7878;44.632;10.942;2023-03-03T21:54:36;11.80;91.30
15554;DHT22;7878;44.632;10.942;2023-03-03T21:57:01;11.70;91.10
15554;DHT22;7878;44.632;10.942;2023-03-03T21:59:27;11.60;91.10
15554;DHT22;7878;44.632;10.942;2023-03-03T22:01:53;11.60;91.30
15554;DHT22;7878;44.632;10.942;2023-03-03T22:04:18;11.50;91.40
15554;DHT22;7878;44.632;10.942;2023-03-03T22:06:44;11.50;91.10
15554;DHT22;7878;44.632;10.942;2023-03-03T22:09:10;11.40;91.00
15554;DHT22;7878;44.632;10.942;2023-03-03T22:11:36;11.40;91.00
15554;DHT22;7878;44.632;10.942;2023-03-03T22:14:07;11.40;91.00
15554;DHT22;7878;44.632;10.942;2023-03-03T22:16:32;11.30;91.10
15554;DHT22;7878;44.632;10.942;2023-03-03T22:18:58;11.30;91.20
15554;DHT22;7878;44.632;10.942;2023-03-03T22:21:24;11.30;91.00
15554;DHT22;7878;44.632;10.942;2023-03-03T22:23:50;11.30;91.30
15554;DHT22;7878;44.632;10.942;2023-03-03T22:26:16;11.30;91.30
15554;DHT22;7878;44.632;10.942;2023-03-03T22:28:42;11.20;90.90
15554;DHT22;7878;44.632;10.942;2023-03-03T22:31:07;11.20;90.80
15554;DHT22;7878;44.632;10.942;2023-03-03T22:33:33;11.20;90.90
15554;DHT22;7878;44.632;10.942;2023-03-03T22:35:59;11.10;90.90
15554;DHT22;7878;44.632;10.942;2023-03-03T22:38:24;11.00;90.80
15554;DHT22;7878;44.632;10.942;2023-03-03T22:40:51;11.00;91.10
15554;DHT22;7878;44.632;10.942;2023-03-03T22:43:17;11.00;90.90
15554;DHT22;7878;44.632;10.942;2023-03-03T22:45:43;10.90;91.10
15554;DHT22;7878;44.632;10.942;2023-03-03T22:48:09;10.90;91.30
15554;DHT22;7878;44.632;10.942;2023-03-03T22:50:36;10.90;91.50
15554;DHT22;7878;44.632;10.942;2023-03-03T22:53:05;10.90;91.50